Waterloo, Iowa
Current Conditions -  °F | °C
As of 4:54 PM on Monday 24 Nov 2014 (Local Time) from KALO Reporting Station
Unknown Precip Unknown Precip  
Wind Chill:   Ceiling: 2100
Heat Index: 22°   Visibility: 10mi
Dew Point: 16°   Wind: 15mph
Humidity: 78%   Direction: 290°WNW
Pressure: 29.7"   Gusts: 22mph
Location:  42.49°N, 92.34°W
Report Text: KALO 242254Z AUTO 29013G19KT 10SM UP BKN021 BKN030 OVC048 M06/M09 A2970 RMK AO2 PK WND 30027/2202 UPB49SNE2157 SLP067 P0000 T10561089
Loading
Personal Weather Stations






























Interactive Weather Map New forecast layout! Learn more

10-Day Weather Forecast

Advertisements
Track Severe Weather on mobile